Juliaetta, ID (83535)

2:19 AM PDT on October 22, 2014 (GMT -0700)
Lamb Road | Change Station
CLOSE
Current Station
Personal Weather Station
Location: Troy, ID
Elevation: 2677 ft
Nearby Weather Stations

Elev 2677 ft 46.72 °N, 116.77 °W | Updated 2 minutes ago

Partly Cloudy
Partly Cloudy
37.9 °F
Feels Like 38 °F
N
0.0
Wind Variable Wind from ENE

Today
High -- | Low -- °F
--% Chance of Precip.
Yesterday
High -- | Low -- °F
Precip. -- in
7:14 AM 5:47 PM
Waning Crescent, 2% visible
Pressure 30.01 in
Visibility 10.0 miles
Clouds Clear
Windchill 38 °F
Dew Point 36 °F
Humidity 94%
Rainfall 0.00 in
Snow Depth Not available.
UV 0 out of 12
Pollen 1.60 out of 12
Air Quality Not available.
Flu Activity Not available.
METAR KLWS 220856Z AUTO 13006KT 10SM CLR 07/03 A3000 RMK AO2 SLP160 T00720033 51000

More Conditions Fewer Conditions

Pressure 30.01 in
Visibility 10.0 miles
Clouds Clear
Windchill 38 °F
Dew Point 36 °F
Humidity 94%
Rainfall 0.00 in
Snow Depth Not available.
UV 0 out of 12
Pollen 1.60 out of 12
Air Quality Not available.
Flu Activity Not available.
METAR KLWS 220856Z AUTO 13006KT 10SM CLR 07/03 A3000 RMK AO2 SLP160 T00720033 51000

More Conditions Fewer Conditions

10-Day Weather Forecast

Almanac

Astronomy

Oct. 22, 2014 Rise Set
Actual Time 7:14 AM PDT 5:47 PM PDT
Civil Twilight 6:43 AM PDT 6:18 PM PDT
Nautical Twilight 6:08 AM PDT 6:53 PM PDT
Astronomical Twilight 5:33 AM PDT 7:28 PM PDT
Moon 5:56 AM PDT 5:19 PM PDT
Length of Visible Light 11h 34m
Length of Day
10h 33m
Tomorrow will be 3m 7s shorter.
Waning Crescent, 2% of the Moon is Illuminated
Today
Waning Crescent
Oct 23
New
Oct 30
First Quarter
Nov 6
Full
Nov 14
Last Quarter

Today's Extremes

State Highs State Lows

Community

WunderPhotos

Upload Photos

1,763,900 photos uploaded!

Nearby

Snow Depth

Station Depth Elevation
Moscow Mountain 1 in 4700 ft
Sherwin 0 in 3200 ft
Elk Butte 0 in 5690 ft
Mica Creek 2 in 4750 ft
Shanghi Summit 0 in 4570 ft

Earthquake Activity

City Distance Mag. Time & Date
No recent earthquake activity has been reported nearby.
Minimum magnitude displayed is 2.5.

Coastal Water Temperatures

Place Temperature
No Stations Reporting

Nearby Weather Stations